Time;durP1;ratioP1;P1;durP2;ratioP2;P2;SDS_P1;SDS_P2;PMS_P1;PMS_P2;Temp;Humidity;BMP_temperature;BMP_pressure;BME280_temperature;BME280_humidity;BME280_pressure;Samples;Min_cycle;Max_cycle;Signal;HPM_P1;HPM_P2
2022/04/24 00:01:27;;;;;;;3.25;2.58;;;;;;;;;;4956227;29;20500;-76
2022/04/24 00:03:53;;;;;;;3.22;2.92;;;;;;;;;;4940662;28;20031;-76
2022/04/24 00:06:19;;;;;;;3.38;2.63;;;;;;;;;;4956232;29;20035;-76
2022/04/24 00:08:44;;;;;;;3.58;2.58;;;;;;;;;;4957171;29;20057;-75
2022/04/24 00:11:10;;;;;;;2.65;2.45;;;;;;;;;;4955871;29;20046;-76
2022/04/24 00:13:38;;;;;;;10.45;2.72;;;;;;;;;;4940066;29;20045;-75
2022/04/24 00:16:06;;;;;;;7.18;2.92;;;;;;;;;;4940719;29;20038;-75
2022/04/24 00:18:31;;;;;;;3.00;2.70;;;;;;;;;;4940243;29;20114;-77
2022/04/24 00:20:57;;;;;;;4.05;3.50;;;;;;;;;;4940028;29;20070;-75
2022/04/24 00:23:22;;;;;;;2.88;2.33;;;;;;;;;;4939673;29;20087;-77
2022/04/24 00:25:48;;;;;;;2.72;2.53;;;;;;;;;;4956435;29;20390;-76
2022/04/24 00:28:13;;;;;;;2.92;2.50;;;;;;;;;;4940065;29;20031;-75
2022/04/24 00:30:39;;;;;;;4.80;2.60;;;;;;;;;;4939895;29;20035;-77
2022/04/24 00:33:04;;;;;;;2.63;2.42;;;;;;;;;;4955802;29;20330;-76
2022/04/24 00:35:31;;;;;;;3.75;3.20;;;;;;;;;;4939768;29;20031;-76
2022/04/24 00:37:57;;;;;;;3.28;2.97;;;;;;;;;;4955670;28;20039;-75
2022/04/24 00:40:22;;;;;;;4.28;2.80;;;;;;;;;;4939587;29;20043;-75
2022/04/24 00:42:48;;;;;;;3.10;2.80;;;;;;;;;;4955597;29;20110;-76
2022/04/24 00:45:13;;;;;;;3.13;2.70;;;;;;;;;;4955492;29;20042;-75
2022/04/24 00:47:41;;;;;;;3.03;2.72;;;;;;;;;;4956588;29;20130;-76
2022/04/24 00:50:07;;;;;;;5.45;3.70;;;;;;;;;;4956846;28;20035;-76
2022/04/24 00:52:33;;;;;;;4.00;2.70;;;;;;;;;;4956947;28;20082;-77
2022/04/24 00:54:59;;;;;;;5.90;3.60;;;;;;;;;;4956726;28;20035;-76
2022/04/24 00:57:25;;;;;;;3.20;2.90;;;;;;;;;;4955278;29;20042;-76
2022/04/24 00:59:50;;;;;;;2.78;2.58;;;;;;;;;;4939357;29;20032;-76
2022/04/24 01:02:16;;;;;;;3.28;2.95;;;;;;;;;;4954745;28;20039;-75
2022/04/24 01:04:41;;;;;;;3.47;2.88;;;;;;;;;;4955115;29;20054;-76
2022/04/24 01:07:07;;;;;;;3.22;2.60;;;;;;;;;;4923337;29;20126;-75
2022/04/24 01:09:34;;;;;;;3.10;2.80;;;;;;;;;;4955109;29;20027;-76
2022/04/24 01:11:59;;;;;;;3.30;3.00;;;;;;;;;;4954987;29;20473;-75
2022/04/24 01:14:26;;;;;;;3.03;2.72;;;;;;;;;;4939680;29;20125;-75
2022/04/24 01:16:52;;;;;;;4.53;3.13;;;;;;;;;;4938966;29;20172;-75
2022/04/24 01:19:18;;;;;;;5.50;3.13;;;;;;;;;;4939031;29;20039;-75
2022/04/24 01:21:45;;;;;;;4.20;3.80;;;;;;;;;;4954880;29;20027;-75
2022/04/24 01:24:12;;;;;;;3.35;3.05;;;;;;;;;;4939018;29;20059;-76
2022/04/24 01:26:38;;;;;;;3.78;3.38;;;;;;;;;;4939027;29;20027;-76
2022/04/24 01:29:04;;;;;;;5.95;4.45;;;;;;;;;;4922706;29;20375;-76
2022/04/24 01:31:30;;;;;;;5.57;3.65;;;;;;;;;;4954734;29;20110;-76
2022/04/24 01:33:55;;;;;;;3.65;3.20;;;;;;;;;;4938884;29;20027;-75
2022/04/24 01:36:21;;;;;;;4.28;3.88;;;;;;;;;;4954647;29;20031;-75
2022/04/24 01:38:46;;;;;;;3.85;3.45;;;;;;;;;;4954496;29;20500;-75
2022/04/24 01:41:12;;;;;;;4.30;3.15;;;;;;;;;;4954300;29;20362;-75
2022/04/24 01:43:37;;;;;;;4.15;3.35;;;;;;;;;;4922956;29;20035;-75
2022/04/24 01:46:04;;;;;;;3.97;3.30;;;;;;;;;;4938154;29;20031;-76
2022/04/24 01:48:32;;;;;;;4.68;3.22;;;;;;;;;;4938255;29;20131;-76
2022/04/24 01:50:57;;;;;;;3.67;3.38;;;;;;;;;;4954204;29;20033;-76
2022/04/24 01:53:23;;;;;;;3.70;3.30;;;;;;;;;;4955435;28;20117;-75
2022/04/24 01:55:48;;;;;;;6.72;3.08;;;;;;;;;;4938650;28;20045;-75
2022/04/24 01:58:14;;;;;;;3.95;3.55;;;;;;;;;;4938436;29;20146;-76
2022/04/24 02:00:39;;;;;;;3.95;3.08;;;;;;;;;;4938080;29;20035;-76
2022/04/24 02:03:05;;;;;;;5.18;3.38;;;;;;;;;;4954046;29;20035;-76
2022/04/24 02:05:30;;;;;;;4.00;3.28;;;;;;;;;;4953830;28;20042;-75
2022/04/24 02:07:55;;;;;;;4.78;3.30;;;;;;;;;;4953747;29;20037;-75
2022/04/24 02:10:21;;;;;;;4.45;3.35;;;;;;;;;;4953906;29;20351;-76
2022/04/24 02:12:46;;;;;;;3.70;3.38;;;;;;;;;;4937837;29;20058;-76
2022/04/24 02:15:12;;;;;;;4.03;3.50;;;;;;;;;;4936863;29;20031;-75
2022/04/24 02:17:38;;;;;;;4.32;3.30;;;;;;;;;;4937732;29;20019;-75
2022/04/24 02:20:03;;;;;;;4.50;3.35;;;;;;;;;;4969781;28;20394;-76
2022/04/24 02:22:33;;;;;;;5.15;3.60;;;;;;;;;;4953773;29;20050;-76
2022/04/24 02:24:59;;;;;;;4.85;3.63;;;;;;;;;;4938093;29;20339;-76
2022/04/24 02:27:24;;;;;;;5.55;3.65;;;;;;;;;;4937638;29;20114;-76
2022/04/24 02:29:50;;;;;;;8.13;3.50;;;;;;;;;;4921586;29;20098;-76
2022/04/24 02:32:15;;;;;;;3.75;3.10;;;;;;;;;;4937461;29;20093;-76
2022/04/24 02:34:41;;;;;;;3.85;3.15;;;;;;;;;;4953425;29;20111;-76
2022/04/24 02:37:06;;;;;;;3.25;2.95;;;;;;;;;;4953314;29;20478;-76
2022/04/24 02:39:31;;;;;;;4.95;3.80;;;;;;;;;;4937754;29;20034;-76
2022/04/24 02:41:57;;;;;;;5.03;3.40;;;;;;;;;;4937498;29;20090;-76
2022/04/24 02:44:22;;;;;;;3.90;3.30;;;;;;;;;;4937185;29;20035;-77
2022/04/24 02:46:47;;;;;;;4.25;3.17;;;;;;;;;;4953137;29;20114;-77
2022/04/24 02:49:13;;;;;;;3.75;3.05;;;;;;;;;;4921170;29;20118;-76
2022/04/24 02:51:38;;;;;;;3.17;2.88;;;;;;;;;;4953349;29;20031;-77
2022/04/24 02:54:04;;;;;;;4.00;3.25;;;;;;;;;;4921059;29;20035;-76
2022/04/24 02:56:29;;;;;;;6.05;3.15;;;;;;;;;;4937076;29;20035;-76
2022/04/24 02:58:54;;;;;;;3.78;2.80;;;;;;;;;;4954559;29;20106;-76
2022/04/24 03:01:21;;;;;;;3.38;2.80;;;;;;;;;;4954126;29;20031;-76
2022/04/24 03:03:49;;;;;;;3.42;2.70;;;;;;;;;;4953197;28;20035;-77
2022/04/24 03:06:15;;;;;;;4.15;2.92;;;;;;;;;;4937495;28;20470;-76
2022/04/24 03:08:40;;;;;;;4.45;3.35;;;;;;;;;;4954074;29;20086;-76
2022/04/24 03:11:06;;;;;;;3.33;3.00;;;;;;;;;;4936854;29;20035;-76
2022/04/24 03:13:31;;;;;;;4.53;3.10;;;;;;;;;;4936788;29;20047;-77
2022/04/24 03:15:57;;;;;;;3.22;2.90;;;;;;;;;;4953091;29;20158;-76
2022/04/24 03:18:22;;;;;;;3.25;2.80;;;;;;;;;;4936654;29;20427;-76
2022/04/24 03:20:47;;;;;;;4.40;3.08;;;;;;;;;;4936797;29;20445;-76
2022/04/24 03:23:13;;;;;;;3.85;3.20;;;;;;;;;;4954199;29;20069;-77
2022/04/24 03:25:38;;;;;;;3.25;2.80;;;;;;;;;;4952438;28;20066;-77
2022/04/24 03:28:04;;;;;;;3.65;2.75;;;;;;;;;;4936602;29;20031;-77
2022/04/24 03:30:29;;;;;;;3.05;2.38;;;;;;;;;;4936623;29;20106;-77
2022/04/24 03:32:55;;;;;;;3.58;2.90;;;;;;;;;;4921139;29;20085;-77
2022/04/24 03:35:20;;;;;;;3.25;2.90;;;;;;;;;;4936446;29;20039;-77
2022/04/24 03:37:46;;;;;;;3.35;2.60;;;;;;;;;;4936549;29;20023;-76
2022/04/24 03:40:12;;;;;;;2.55;2.30;;;;;;;;;;4936371;29;20027;-77
2022/04/24 03:42:37;;;;;;;3.42;2.85;;;;;;;;;;4952315;29;20038;-77
2022/04/24 03:45:06;;;;;;;5.07;2.83;;;;;;;;;;4920724;29;20038;-76
2022/04/24 03:47:32;;;;;;;3.65;2.55;;;;;;;;;;4936417;29;20089;-76
2022/04/24 03:49:57;;;;;;;4.68;2.80;;;;;;;;;;4936455;29;20054;-77
2022/04/24 03:52:23;;;;;;;2.50;2.30;;;;;;;;;;4936321;29;20032;-76
2022/04/24 03:54:48;;;;;;;3.13;2.72;;;;;;;;;;4953631;29;20031;-76
2022/04/24 03:57:14;;;;;;;3.67;2.60;;;;;;;;;;4952459;29;20047;-76
2022/04/24 03:59:39;;;;;;;3.00;2.55;;;;;;;;;;4936279;29;20133;-76
2022/04/24 04:02:05;;;;;;;3.03;2.72;;;;;;;;;;4952215;29;20359;-76
2022/04/24 04:04:30;;;;;;;2.60;2.30;;;;;;;;;;4936175;29;20118;-76
2022/04/24 04:06:56;;;;;;;3.40;2.75;;;;;;;;;;4952447;29;20058;-76
2022/04/24 04:09:22;;;;;;;3.03;2.58;;;;;;;;;;4953455;29;20031;-76
2022/04/24 04:11:47;;;;;;;2.88;2.63;;;;;;;;;;4936396;29;20045;-75
2022/04/24 04:14:13;;;;;;;2.65;2.22;;;;;;;;;;4951972;29;20035;-76
2022/04/24 04:16:38;;;;;;;2.88;2.45;;;;;;;;;;4952296;28;20035;-75
2022/04/24 04:19:04;;;;;;;2.55;2.35;;;;;;;;;;4951962;29;20069;-77
2022/04/24 04:21:30;;;;;;;3.45;2.53;;;;;;;;;;4952027;29;20035;-77
2022/04/24 04:23:55;;;;;;;2.80;2.60;;;;;;;;;;4951661;29;20422;-76
2022/04/24 04:26:21;;;;;;;2.80;2.53;;;;;;;;;;4935851;29;20130;-77
2022/04/24 04:28:47;;;;;;;2.45;2.25;;;;;;;;;;4952148;29;20435;-77
2022/04/24 04:31:13;;;;;;;2.50;2.30;;;;;;;;;;4936147;29;20035;-77
2022/04/24 04:33:38;;;;;;;3.17;2.38;;;;;;;;;;4952721;29;20051;-76
2022/04/24 04:36:04;;;;;;;5.95;2.42;;;;;;;;;;4936521;28;20073;-77
2022/04/24 04:38:29;;;;;;;4.82;3.10;;;;;;;;;;4955846;29;20031;-76
2022/04/24 04:40:55;;;;;;;2.95;2.40;;;;;;;;;;4956168;29;20114;-76
2022/04/24 04:43:20;;;;;;;2.90;2.63;;;;;;;;;;4956053;29;20405;-76
2022/04/24 04:45:47;;;;;;;2.40;2.20;;;;;;;;;;4956131;29;20027;-76
2022/04/24 04:48:12;;;;;;;2.50;2.30;;;;;;;;;;4939786;29;20043;-76
2022/04/24 04:50:38;;;;;;;2.80;2.50;;;;;;;;;;4939909;29;20042;-75
2022/04/24 04:53:03;;;;;;;3.28;2.42;;;;;;;;;;4955801;29;20118;-76
2022/04/24 04:55:29;;;;;;;3.63;2.45;;;;;;;;;;4939973;29;20035;-75
2022/04/24 04:57:54;;;;;;;2.70;2.50;;;;;;;;;;4939702;29;20111;-75
2022/04/24 05:00:20;;;;;;;2.30;2.10;;;;;;;;;;4955935;28;20114;-76
2022/04/24 05:02:45;;;;;;;2.33;2.13;;;;;;;;;;4955622;29;20038;-75
2022/04/24 05:05:11;;;;;;;2.28;2.08;;;;;;;;;;4939719;29;20031;-75
2022/04/24 05:07:37;;;;;;;2.80;2.00;;;;;;;;;;4955464;29;20478;-75
2022/04/24 05:10:03;;;;;;;2.80;2.42;;;;;;;;;;4955863;29;20023;-76
2022/04/24 05:12:30;;;;;;;2.83;2.25;;;;;;;;;;4939658;29;20090;-76
2022/04/24 05:15:06;;;;;;;2.95;2.17;;;;;;;;;;4955590;29;20082;-77
2022/04/24 05:17:34;;;;;;;2.45;2.25;;;;;;;;;;4939560;29;20038;-76
2022/04/24 05:19:59;;;;;;;2.90;2.40;;;;;;;;;;4955823;28;20035;-76
2022/04/24 05:22:25;;;;;;;2.05;1.92;;;;;;;;;;4939561;29;20031;-75
2022/04/24 05:24:50;;;;;;;3.58;2.30;;;;;;;;;;4956005;29;20482;-77
2022/04/24 05:27:16;;;;;;;2.30;2.10;;;;;;;;;;4956732;29;20038;-76
2022/04/24 05:29:42;;;;;;;2.17;2.00;;;;;;;;;;4956916;29;20039;-76
2022/04/24 05:32:07;;;;;;;2.70;2.42;;;;;;;;;;4956837;29;20488;-76
2022/04/24 05:34:33;;;;;;;5.80;2.58;;;;;;;;;;4956023;29;20042;-76
2022/04/24 05:36:58;;;;;;;2.85;2.40;;;;;;;;;;4923380;29;20182;-76
2022/04/24 05:39:23;;;;;;;2.40;2.20;;;;;;;;;;4955881;29;20211;-77
2022/04/24 05:41:49;;;;;;;2.60;2.40;;;;;;;;;;4956643;29;20046;-76
2022/04/24 05:44:14;;;;;;;2.38;1.80;;;;;;;;;;4955036;29;20024;-76
2022/04/24 05:46:40;;;;;;;3.20;2.47;;;;;;;;;;4938692;29;20102;-75
2022/04/24 05:49:06;;;;;;;2.83;2.08;;;;;;;;;;4954372;28;20086;-76
2022/04/24 05:51:33;;;;;;;4.97;2.28;;;;;;;;;;4954863;28;20501;-75
2022/04/24 05:53:59;;;;;;;3.78;2.42;;;;;;;;;;4938671;29;20038;-76
2022/04/24 05:56:24;;;;;;;3.97;2.53;;;;;;;;;;4954374;29;20031;-76
2022/04/24 05:58:50;;;;;;;7.13;2.67;;;;;;;;;;4938857;29;20090;-75
2022/04/24 06:01:15;;;;;;;2.60;2.17;;;;;;;;;;4954043;29;20036;-76
2022/04/24 06:03:40;;;;;;;4.45;2.08;;;;;;;;;;4954134;29;20375;-76
2022/04/24 06:06:07;;;;;;;2.42;2.22;;;;;;;;;;4954089;29;20043;-75
2022/04/24 06:08:32;;;;;;;2.10;1.90;;;;;;;;;;4955984;29;20403;-74
2022/04/24 06:10:57;;;;;;;2.50;2.22;;;;;;;;;;4938355;29;20066;-76
2022/04/24 06:13:23;;;;;;;2.75;2.10;;;;;;;;;;4954959;29;20486;-76
2022/04/24 06:15:48;;;;;;;6.10;2.30;;;;;;;;;;4955087;29;20086;-75
2022/04/24 06:18:14;;;;;;;3.78;2.53;;;;;;;;;;4938423;29;20027;-75
2022/04/24 06:20:39;;;;;;;3.75;2.30;;;;;;;;;;4953987;29;20039;-77
2022/04/24 06:23:05;;;;;;;3.92;2.88;;;;;;;;;;4954630;29;20037;-77
2022/04/24 06:25:32;;;;;;;4.55;2.38;;;;;;;;;;4938713;29;20043;-76
2022/04/24 06:27:58;;;;;;;6.57;2.30;;;;;;;;;;4955720;28;20466;-77
2022/04/24 06:30:26;;;;;;;4.63;2.72;;;;;;;;;;4955586;28;20035;-77
2022/04/24 06:32:52;;;;;;;2.88;2.30;;;;;;;;;;4954111;29;20019;-76
2022/04/24 06:35:18;;;;;;;5.00;2.63;;;;;;;;;;4954147;29;20355;-76
2022/04/24 06:37:46;;;;;;;3.45;2.40;;;;;;;;;;4954269;29;20102;-76
2022/04/24 06:40:13;;;;;;;2.78;2.30;;;;;;;;;;4938024;29;20393;-77
2022/04/24 06:42:53;;;;;;;5.07;2.50;;;;;;;;;;4953880;29;20078;-77
2022/04/24 06:45:25;;;;;;;5.13;2.60;;;;;;;;;;4954096;29;20027;-77
2022/04/24 06:47:55;;;;;;;3.58;2.28;;;;;;;;;;4937891;29;20059;-77
2022/04/24 06:50:22;;;;;;;4.03;2.25;;;;;;;;;;4938575;29;20031;-77
2022/04/24 06:53:01;;;;;;;4.13;2.22;;;;;;;;;;4955309;28;20055;-76
2022/04/24 06:55:28;;;;;;;6.07;2.30;;;;;;;;;;4953913;29;20028;-77
2022/04/24 06:57:53;;;;;;;5.00;2.55;;;;;;;;;;4955228;28;20051;-76
2022/04/24 07:00:19;;;;;;;3.60;2.53;;;;;;;;;;4953125;28;20066;-78
2022/04/24 07:02:45;;;;;;;6.15;2.38;;;;;;;;;;4953791;29;20131;-77
2022/04/24 07:05:11;;;;;;;12.23;2.33;;;;;;;;;;4953490;29;20109;-77
2022/04/24 07:07:36;;;;;;;3.05;2.58;;;;;;;;;;4953186;29;20181;-78
2022/04/24 07:10:02;;;;;;;4.18;2.50;;;;;;;;;;4953395;29;20093;-78
2022/04/24 07:12:27;;;;;;;19.52;4.97;;;;;;;;;;4937286;29;20434;-77
2022/04/24 07:14:53;;;;;;;18.13;5.10;;;;;;;;;;4953347;29;20027;-77
2022/04/24 07:17:18;;;;;;;16.90;5.00;;;;;;;;;;4954368;29;20042;-77
2022/04/24 07:19:44;;;;;;;16.02;4.20;;;;;;;;;;4953349;29;20424;-76
2022/04/24 07:22:09;;;;;;;8.38;3.83;;;;;;;;;;4953104;29;20034;-78
2022/04/24 07:24:35;;;;;;;11.13;3.67;;;;;;;;;;4937090;29;20027;-78
2022/04/24 07:27:00;;;;;;;8.23;3.30;;;;;;;;;;4954476;29;20054;-78
2022/04/24 07:29:25;;;;;;;10.02;3.50;;;;;;;;;;4936966;29;20078;-78
2022/04/24 07:31:51;;;;;;;8.75;3.08;;;;;;;;;;4953060;29;20042;-78
2022/04/24 07:34:16;;;;;;;9.20;2.95;;;;;;;;;;4952797;29;20338;-78
2022/04/24 07:36:41;;;;;;;8.32;3.45;;;;;;;;;;4954307;29;20033;-78
2022/04/24 07:39:07;;;;;;;5.63;2.70;;;;;;;;;;4954276;29;20038;-77
2022/04/24 07:41:32;;;;;;;6.20;2.97;;;;;;;;;;4953053;29;20034;-78
2022/04/24 07:43:58;;;;;;;9.65;2.88;;;;;;;;;;4953955;29;20031;-78
2022/04/24 07:46:23;;;;;;;5.68;2.45;;;;;;;;;;4953840;29;20063;-77
2022/04/24 07:48:49;;;;;;;4.40;2.17;;;;;;;;;;4936762;29;20079;-78
2022/04/24 07:51:14;;;;;;;4.40;2.42;;;;;;;;;;4952901;29;20031;-78
2022/04/24 07:53:42;;;;;;;4.57;2.65;;;;;;;;;;4954083;29;20411;-77
2022/04/24 07:56:07;;;;;;;15.75;2.42;;;;;;;;;;4953270;29;20110;-78
2022/04/24 07:58:33;;;;;;;3.22;2.05;;;;;;;;;;4921023;29;20106;-77
2022/04/24 08:00:58;;;;;;;13.50;3.17;;;;;;;;;;4936799;29;20474;-78
2022/04/24 08:03:23;;;;;;;4.57;2.30;;;;;;;;;;4952662;29;20027;-78
2022/04/24 08:05:51;;;;;;;3.72;2.10;;;;;;;;;;4954175;29;20035;-77
2022/04/24 08:08:18;;;;;;;13.00;2.33;;;;;;;;;;4936706;29;20027;-78
2022/04/24 08:10:49;;;;;;;4.38;2.22;;;;;;;;;;4952749;29;20027;-77
2022/04/24 08:13:15;;;;;;;6.75;2.17;;;;;;;;;;4955153;29;20027;-76
2022/04/24 08:15:42;;;;;;;3.45;2.20;;;;;;;;;;4957673;28;20043;-76
2022/04/24 08:18:08;;;;;;;5.30;1.90;;;;;;;;;;4956442;29;20094;-76
2022/04/24 08:20:36;;;;;;;5.50;2.13;;;;;;;;;;4956390;29;20431;-76
2022/04/24 08:23:03;;;;;;;4.68;2.10;;;;;;;;;;4957676;28;20498;-76
2022/04/24 08:25:29;;;;;;;3.08;2.00;;;;;;;;;;4940513;29;20070;-77
2022/04/24 08:27:56;;;;;;;3.47;2.13;;;;;;;;;;4956538;29;20024;-77
2022/04/24 08:30:23;;;;;;;3.00;2.10;;;;;;;;;;4957600;28;20043;-76
2022/04/24 08:32:49;;;;;;;4.35;2.45;;;;;;;;;;4957542;28;20023;-77
2022/04/24 08:35:16;;;;;;;3.75;2.17;;;;;;;;;;4956025;29;20042;-76
2022/04/24 08:37:42;;;;;;;2.75;1.92;;;;;;;;;;4940008;29;20031;-78
2022/04/24 08:40:11;;;;;;;2.67;2.05;;;;;;;;;;4955672;29;20031;-76
2022/04/24 08:42:36;;;;;;;4.70;1.80;;;;;;;;;;4955887;29;20038;-79
2022/04/24 08:45:03;;;;;;;6.25;2.00;;;;;;;;;;4956020;29;20406;-78
2022/04/24 08:47:28;;;;;;;3.47;1.95;;;;;;;;;;4955695;29;20578;-77
2022/04/24 08:49:58;;;;;;;6.57;2.40;;;;;;;;;;4955889;29;20125;-76
2022/04/24 08:52:27;;;;;;;6.00;2.35;;;;;;;;;;4955758;29;20055;-78
2022/04/24 08:54:53;;;;;;;7.53;2.65;;;;;;;;;;4955771;29;20094;-77
2022/04/24 08:57:19;;;;;;;3.80;2.45;;;;;;;;;;4955605;29;20031;-80
2022/04/24 08:59:46;;;;;;;7.03;2.80;;;;;;;;;;4955383;29;20079;-77
2022/04/24 09:02:12;;;;;;;4.78;2.70;;;;;;;;;;4956362;29;20429;-78
2022/04/24 09:04:38;;;;;;;7.10;2.50;;;;;;;;;;4955485;29;20031;-77
2022/04/24 09:07:08;;;;;;;8.13;2.90;;;;;;;;;;4955531;29;20101;-76
2022/04/24 09:09:42;;;;;;;7.68;2.78;;;;;;;;;;4955487;29;20059;-77
2022/04/24 09:12:09;;;;;;;5.95;2.78;;;;;;;;;;4956764;28;20509;-76
2022/04/24 09:14:35;;;;;;;4.38;2.20;;;;;;;;;;4955932;28;20122;-77
2022/04/24 09:17:07;;;;;;;5.38;2.60;;;;;;;;;;4956587;28;20501;-77
2022/04/24 09:19:33;;;;;;;8.27;2.50;;;;;;;;;;4939638;29;20110;-77
2022/04/24 09:22:06;;;;;;;6.30;2.70;;;;;;;;;;4939888;29;20058;-77
2022/04/24 09:24:44;;;;;;;4.28;2.55;;;;;;;;;;4956161;28;20039;-76
2022/04/24 09:27:11;;;;;;;5.82;2.35;;;;;;;;;;4956347;28;20057;-78
2022/04/24 09:29:40;;;;;;;2.80;2.17;;;;;;;;;;4956387;29;20066;-76
2022/04/24 09:32:15;;;;;;;7.25;2.53;;;;;;;;;;4939400;29;20031;-76
2022/04/24 09:34:40;;;;;;;5.15;3.15;;;;;;;;;;4954781;29;20039;-76
2022/04/24 09:37:11;;;;;;;6.63;3.00;;;;;;;;;;4954974;29;20050;-78
2022/04/24 09:39:38;;;;;;;6.95;2.40;;;;;;;;;;4955071;29;20055;-76
2022/04/24 09:42:08;;;;;;;9.18;2.30;;;;;;;;;;4938696;29;20043;-76
2022/04/24 09:44:44;;;;;;;9.52;2.80;;;;;;;;;;4956020;29;20031;-76
2022/04/24 09:47:10;;;;;;;4.82;2.50;;;;;;;;;;4953819;29;20058;-76
2022/04/24 09:49:45;;;;;;;6.13;2.53;;;;;;;;;;4954611;29;20039;-76
2022/04/24 09:52:12;;;;;;;3.92;2.03;;;;;;;;;;4956322;28;20356;-76
2022/04/24 09:54:40;;;;;;;20.25;3.28;;;;;;;;;;4954962;29;20046;-76
2022/04/24 09:57:10;;;;;;;3.70;2.53;;;;;;;;;;4955035;29;20023;-76
2022/04/24 09:59:38;;;;;;;7.95;2.70;;;;;;;;;;4954846;29;20489;-76
2022/04/24 10:02:04;;;;;;;2.92;2.42;;;;;;;;;;4956694;28;20102;-76
2022/04/24 10:04:34;;;;;;;3.95;2.40;;;;;;;;;;4938679;29;20027;-76
2022/04/24 10:06:59;;;;;;;3.80;2.28;;;;;;;;;;4956381;28;20106;-76
2022/04/24 10:09:26;;;;;;;3.15;2.30;;;;;;;;;;4923173;29;20395;-77
2022/04/24 10:11:52;;;;;;;3.10;2.45;;;;;;;;;;4954633;29;20042;-76
2022/04/24 10:14:18;;;;;;;2.80;2.47;;;;;;;;;;4954492;29;20546;-76
2022/04/24 10:17:06;;;;;;;3.33;2.28;;;;;;;;;;4954327;29;20038;-76
2022/04/24 10:20:14;;;;;;;5.50;2.53;;;;;;;;;;4954537;29;20536;-76
2022/04/24 10:22:47;;;;;;;4.53;2.28;;;;;;;;;;4954794;29;20055;-78
2022/04/24 10:25:15;;;;;;;2.85;2.30;;;;;;;;;;4954505;28;20026;-76
2022/04/24 10:27:42;;;;;;;4.40;2.72;;;;;;;;;;4955415;28;20035;-74
2022/04/24 10:30:18;;;;;;;6.82;2.42;;;;;;;;;;4955326;28;20111;-75
2022/04/24 10:32:46;;;;;;;10.73;2.22;;;;;;;;;;4954231;29;20086;-77
2022/04/24 10:35:20;;;;;;;5.20;2.38;;;;;;;;;;4953178;28;20049;-76
2022/04/24 10:37:48;;;;;;;3.65;2.60;;;;;;;;;;4955394;28;20031;-76
2022/04/24 10:40:16;;;;;;;4.22;2.55;;;;;;;;;;4953731;29;20463;-77
2022/04/24 10:42:43;;;;;;;4.38;2.10;;;;;;;;;;4937858;29;20319;-76
2022/04/24 10:45:19;;;;;;;5.60;2.67;;;;;;;;;;4954185;29;20082;-75
2022/04/24 10:47:52;;;;;;;3.10;2.28;;;;;;;;;;4938039;29;20055;-77
2022/04/24 10:50:18;;;;;;;;;;;;;;;;;;4953997;29;20035;-77
2022/04/24 10:52:48;;;;;;;5.65;2.10;;;;;;;;;;4954980;29;19914;-79
2022/04/24 10:55:16;;;;;;;2.42;2.05;;;;;;;;;;4936936;29;20478;-77
2022/04/24 10:57:44;;;;;;;5.35;2.22;;;;;;;;;;4953553;29;20027;-77
2022/04/24 11:00:19;;;;;;;5.35;2.28;;;;;;;;;;4953524;29;20023;-76
2022/04/24 11:02:45;;;;;;;3.10;2.05;;;;;;;;;;4969356;28;20038;-77
2022/04/24 11:05:11;;;;;;;4.55;2.20;;;;;;;;;;4954916;28;20027;-76
2022/04/24 11:07:36;;;;;;;7.45;2.33;;;;;;;;;;4954715;29;20182;-76
2022/04/24 11:10:09;;;;;;;3.17;2.13;;;;;;;;;;4955029;28;20039;-76
2022/04/24 11:12:35;;;;;;;11.95;2.38;;;;;;;;;;4953377;29;20035;-77
2022/04/24 11:15:10;;;;;;;3.25;2.08;;;;;;;;;;4953197;29;20058;-76
2022/04/24 11:17:36;;;;;;;5.10;2.10;;;;;;;;;;4937321;29;20035;-75
2022/04/24 11:20:10;;;;;;;7.80;2.70;;;;;;;;;;4953399;29;20045;-76
2022/04/24 11:22:53;;;;;;;6.15;3.05;;;;;;;;;;4938010;29;20121;-75
2022/04/24 11:25:21;;;;;;;4.10;2.80;;;;;;;;;;4954946;28;20027;-76
2022/04/24 11:27:54;;;;;;;5.32;2.60;;;;;;;;;;4953184;29;20466;-75
2022/04/24 11:30:33;;;;;;;4.57;2.75;;;;;;;;;;4953220;29;20039;-77
2022/04/24 11:33:00;;;;;;;4.35;2.40;;;;;;;;;;4953675;29;20055;-76
2022/04/24 11:35:29;;;;;;;4.03;2.72;;;;;;;;;;4937214;29;20031;-76
2022/04/24 11:37:55;;;;;;;3.38;2.45;;;;;;;;;;4953557;29;20509;-76
2022/04/24 11:40:23;;;;;;;6.30;2.90;;;;;;;;;;4954657;29;20071;-75
2022/04/24 11:42:49;;;;;;;5.72;2.22;;;;;;;;;;4954479;28;20031;-75
2022/04/24 11:50:50;;;;;;;4.32;2.40;;;;;;;;;;4953511;29;20089;-76
2022/04/24 11:53:17;;;;;;;5.60;2.40;;;;;;;;;;4954147;28;20027;-76
2022/04/24 11:58:26;;;;;;;3.92;2.20;;;;;;;;;;4939479;29;20058;-76
2022/04/24 12:00:51;;;;;;;4.50;2.30;;;;;;;;;;4952654;29;20087;-76
2022/04/24 12:03:17;;;;;;;3.97;2.03;;;;;;;;;;4952353;29;20038;-77
2022/04/24 12:05:43;;;;;;;3.30;2.13;;;;;;;;;;4936921;29;20039;-77
2022/04/24 12:08:11;;;;;;;4.00;2.20;;;;;;;;;;4952710;29;20466;-77
2022/04/24 12:10:43;;;;;;;5.68;2.70;;;;;;;;;;4953058;28;20127;-77
2022/04/24 12:13:09;;;;;;;2.20;1.98;;;;;;;;;;4937035;29;20031;-77
2022/04/24 12:15:34;;;;;;;3.38;1.90;;;;;;;;;;4953436;28;20034;-77
2022/04/24 12:18:01;;;;;;;2.85;2.10;;;;;;;;;;4936707;29;20414;-78
2022/04/24 12:20:40;;;;;;;4.20;2.30;;;;;;;;;;4953947;29;20063;-77
2022/04/24 12:23:11;;;;;;;2.25;1.92;;;;;;;;;;4952476;29;20573;-77
2022/04/24 12:25:49;;;;;;;2.47;1.88;;;;;;;;;;4936840;29;20031;-78
2022/04/24 12:28:36;;;;;;;6.10;2.00;;;;;;;;;;4952364;29;20041;-77
2022/04/24 12:31:04;;;;;;;2.78;1.98;;;;;;;;;;4952154;29;20458;-76
2022/04/24 12:33:30;;;;;;;2.25;1.75;;;;;;;;;;4952125;29;20395;-76
2022/04/24 12:36:16;;;;;;;2.25;2.00;;;;;;;;;;4952386;29;20027;-76
2022/04/24 12:38:59;;;;;;;2.75;1.95;;;;;;;;;;4951761;28;20036;-76
2022/04/24 12:41:27;;;;;;;2.25;2.00;;;;;;;;;;4952209;29;20525;-75
2022/04/24 12:44:01;;;;;;;2.55;1.90;;;;;;;;;;4952104;29;20043;-76
2022/04/24 12:46:27;;;;;;;2.72;1.70;;;;;;;;;;4951051;28;20031;-75
2022/04/24 12:48:54;;;;;;;2.50;1.95;;;;;;;;;;4917520;29;20064;-75
2022/04/24 12:51:23;;;;;;;3.50;1.70;;;;;;;;;;4917335;29;20031;-75
2022/04/24 12:53:49;;;;;;;2.67;2.00;;;;;;;;;;4901485;29;20024;-75
2022/04/24 12:56:14;;;;;;;2.10;1.88;;;;;;;;;;4901296;29;20031;-76
2022/04/24 12:58:40;;;;;;;2.80;1.67;;;;;;;;;;4918974;29;20237;-76
2022/04/24 13:01:06;;;;;;;3.45;1.77;;;;;;;;;;4920528;29;20470;-76
2022/04/24 13:03:33;;;;;;;1.98;1.77;;;;;;;;;;4904813;29;20114;-76
2022/04/24 13:05:58;;;;;;;2.00;1.60;;;;;;;;;;4920569;29;20036;-76
2022/04/24 13:08:24;;;;;;;2.53;1.77;;;;;;;;;;4920385;29;20172;-76
2022/04/24 13:10:50;;;;;;;3.53;1.90;;;;;;;;;;4920199;29;20352;-76
2022/04/24 13:13:16;;;;;;;2.92;1.80;;;;;;;;;;4904808;29;20035;-76
2022/04/24 13:15:41;;;;;;;3.28;1.80;;;;;;;;;;4904602;29;20067;-75
2022/04/24 13:18:07;;;;;;;1.85;1.60;;;;;;;;;;4920244;29;20042;-75
2022/04/24 13:20:43;;;;;;;1.85;1.60;;;;;;;;;;4904882;29;20076;-76
2022/04/24 13:23:11;;;;;;;1.73;1.63;;;;;;;;;;4919848;29;20032;-75
2022/04/24 13:25:39;;;;;;;4.35;1.85;;;;;;;;;;4920066;29;20027;-75
2022/04/24 13:28:05;;;;;;;8.88;1.90;;;;;;;;;;4920153;29;20448;-77
2022/04/24 13:30:32;;;;;;;3.88;1.60;;;;;;;;;;4920100;29;20148;-76
2022/04/24 13:32:57;;;;;;;1.98;1.60;;;;;;;;;;4920053;29;20439;-76
2022/04/24 13:35:24;;;;;;;2.05;1.70;;;;;;;;;;4904249;29;20067;-77
2022/04/24 13:40:33;;;;;;;1.88;1.60;;;;;;;;;;4922691;29;20043;-76
2022/04/24 13:42:59;;;;;;;1.90;1.63;;;;;;;;;;4888475;29;20036;-76
2022/04/24 13:45:26;;;;;;;3.53;1.67;;;;;;;;;;4919856;29;20047;-76
2022/04/24 13:47:54;;;;;;;1.50;1.40;;;;;;;;;;4932864;29;20417;-76
2022/04/24 13:50:21;;;;;;;3.15;1.60;;;;;;;;;;4939114;29;20051;-76
2022/04/24 13:52:47;;;;;;;1.98;1.60;;;;;;;;;;4938677;29;20041;-76
2022/04/24 13:55:13;;;;;;;1.70;1.60;;;;;;;;;;4938419;29;20106;-76
2022/04/24 13:57:39;;;;;;;2.35;1.52;;;;;;;;;;4922436;29;20054;-76
2022/04/24 14:00:10;;;;;;;1.70;1.60;;;;;;;;;;4922462;29;20038;-77
2022/04/24 14:02:36;;;;;;;1.75;1.65;;;;;;;;;;4938942;29;20098;-76
2022/04/24 14:05:03;;;;;;;1.77;1.55;;;;;;;;;;4938411;29;20130;-76
2022/04/24 14:07:28;;;;;;;3.33;1.60;;;;;;;;;;4922586;29;20031;-76
2022/04/24 14:09:53;;;;;;;1.60;1.50;;;;;;;;;;4937995;29;20094;-76
2022/04/24 14:12:19;;;;;;;1.92;1.58;;;;;;;;;;4937955;29;20447;-76
2022/04/24 14:14:45;;;;;;;1.42;1.33;;;;;;;;;;4922189;29;20046;-76
2022/04/24 14:17:11;;;;;;;2.22;1.60;;;;;;;;;;4922233;29;20035;-76
2022/04/24 14:19:36;;;;;;;1.52;1.42;;;;;;;;;;4937820;29;20027;-76
2022/04/24 14:22:02;;;;;;;1.65;1.50;;;;;;;;;;4937775;29;20086;-76
2022/04/24 14:24:28;;;;;;;2.50;1.50;;;;;;;;;;4937644;29;20386;-76
2022/04/24 14:26:53;;;;;;;2.22;1.40;;;;;;;;;;4937847;29;20130;-76
2022/04/24 14:29:19;;;;;;;1.92;1.50;;;;;;;;;;4937723;29;20024;-75
2022/04/24 14:31:46;;;;;;;3.45;1.50;;;;;;;;;;4937531;29;20537;-75
2022/04/24 14:34:12;;;;;;;2.17;1.63;;;;;;;;;;4922063;29;20027;-76
2022/04/24 14:36:38;;;;;;;1.35;1.25;;;;;;;;;;4937742;29;20374;-76
2022/04/24 14:39:03;;;;;;;1.70;1.60;;;;;;;;;;4937565;29;20054;-76
2022/04/24 14:41:29;;;;;;;1.55;1.42;;;;;;;;;;4937935;29;20066;-76
2022/04/24 14:43:55;;;;;;;1.50;1.40;;;;;;;;;;4921521;29;20059;-76
2022/04/24 14:57:16;;;;;;;1.63;1.45;;;;;;;;;;4939980;29;20042;-76
2022/04/24 14:59:42;;;;;;;1.35;1.25;;;;;;;;;;4921425;29;20351;-76
2022/04/24 15:02:07;;;;;;;1.30;1.17;;;;;;;;;;4954580;29;20031;-74
2022/04/24 15:04:34;;;;;;;1.38;1.20;;;;;;;;;;4937240;29;20167;-76